Time;durP1;ratioP1;P1;durP2;ratioP2;P2;SDS_P1;SDS_P2;PMS_P1;PMS_P2;Temp;Humidity;BMP_temperature;BMP_pressure;BME280_temperature;BME280_humidity;BME280_pressure;Samples;Min_cycle;Max_cycle;Signal;HPM_P1;HPM_P2
2022/12/24 00:01:57;;;;;;;12.03;7.17;;;;;;;5.32;100.00;94351.09;5071288;28;20219;-54
2022/12/24 00:04:22;;;;;;;9.63;6.13;;;;;;;5.35;100.00;94345.84;5071330;28;20211;-55
2022/12/24 00:06:47;;;;;;;8.73;6.10;;;;;;;5.37;100.00;94337.28;5071131;28;20200;-53
2022/12/24 00:09:13;;;;;;;8.47;6.30;;;;;;;5.31;100.00;94345.25;5070916;28;20220;-53
2022/12/24 00:11:38;;;;;;;9.17;6.53;;;;;;;5.16;100.00;94331.19;5071113;28;20334;-53
2022/12/24 00:14:04;;;;;;;12.90;7.07;;;;;;;5.21;100.00;94344.28;5069683;28;20196;-56
2022/12/24 00:16:29;;;;;;;12.83;6.63;;;;;;;5.10;100.00;94334.94;5070866;28;20645;-56
2022/12/24 00:18:55;;;;;;;10.20;5.50;;;;;;;5.10;100.00;94314.78;5070876;28;20331;-56
2022/12/24 00:21:20;;;;;;;11.23;6.10;;;;;;;5.13;100.00;94309.53;5071438;28;20567;-55
2022/12/24 00:23:46;;;;;;;9.57;6.37;;;;;;;5.25;100.00;94347.41;5071116;28;20190;-54
2022/12/24 00:26:13;;;;;;;10.27;6.23;;;;;;;5.31;100.00;94339.41;5071361;28;20591;-56
2022/12/24 00:28:39;;;;;;;8.50;5.20;;;;;;;5.36;100.00;94360.03;5069530;28;20540;-55
2022/12/24 00:31:14;;;;;;;7.70;5.13;;;;;;;5.32;100.00;94356.94;5071141;28;20343;-53
2022/12/24 00:33:39;;;;;;;9.50;5.87;;;;;;;5.35;100.00;94356.75;5071059;28;20198;-54
2022/12/24 00:36:05;;;;;;;8.43;5.00;;;;;;;5.44;100.00;94367.88;5070955;28;20212;-53
2022/12/24 00:38:31;;;;;;;7.33;5.30;;;;;;;5.38;100.00;94360.75;5070816;28;20216;-53
2022/12/24 00:41:01;;;;;;;8.40;5.10;;;;;;;5.34;100.00;94344.22;5070775;28;20249;-55
2022/12/24 00:43:28;;;;;;;7.33;4.37;;;;;;;5.40;100.00;94367.28;5070959;28;20621;-56
2022/12/24 00:45:54;;;;;;;8.53;4.07;;;;;;;5.27;100.00;94378.34;5071240;28;20224;-56
2022/12/24 00:48:19;;;;;;;6.70;4.27;;;;;;;5.26;100.00;94369.97;5070638;28;20225;-54
2022/12/24 00:50:44;;;;;;;7.27;4.73;;;;;;;5.15;100.00;94347.22;5070874;28;20218;-54
2022/12/24 00:53:10;;;;;;;7.70;4.87;;;;;;;5.01;100.00;94342.31;5070788;28;20198;-52
2022/12/24 00:55:35;;;;;;;9.33;5.20;;;;;;;5.06;100.00;94335.25;5070866;28;20224;-56
2022/12/24 00:58:01;;;;;;;8.53;4.87;;;;;;;5.07;100.00;94347.72;5070629;28;20245;-55
2022/12/24 01:00:26;;;;;;;9.57;5.43;;;;;;;4.96;100.00;94340.13;5070509;28;20211;-54
2022/12/24 01:02:51;;;;;;;8.10;4.77;;;;;;;5.01;100.00;94342.31;5070607;28;20223;-56
2022/12/24 01:05:19;;;;;;;6.80;5.00;;;;;;;4.87;100.00;94333.19;5070820;28;20211;-56
2022/12/24 01:07:46;;;;;;;8.40;5.10;;;;;;;4.94;100.00;94331.88;5070563;28;20191;-54
2022/12/24 01:10:13;;;;;;;8.40;5.20;;;;;;;5.00;100.00;94345.75;5087582;22;20231;-57
2022/12/24 01:12:39;;;;;;;9.57;5.83;;;;;;;5.00;100.00;94336.47;5090819;28;20191;-53
2022/12/24 01:15:06;;;;;;;10.00;5.80;;;;;;;5.12;100.00;94352.47;5090625;28;20268;-54
2022/12/24 01:17:33;;;;;;;9.37;5.83;;;;;;;5.18;100.00;94366.34;5090514;28;20188;-53
2022/12/24 01:19:58;;;;;;;7.77;5.23;;;;;;;5.23;100.00;94367.66;5090292;28;20214;-54
2022/12/24 01:22:24;;;;;;;8.53;5.40;;;;;;;5.16;100.00;94355.56;5098199;22;20227;-56
2022/12/24 01:24:49;;;;;;;8.23;5.43;;;;;;;5.00;100.00;94344.03;5090407;28;20294;-56
2022/12/24 01:27:15;;;;;;;8.87;5.23;;;;;;;5.18;100.00;94367.16;5093579;28;20196;-56
2022/12/24 01:29:40;;;;;;;10.73;6.77;;;;;;;4.88;100.00;94327.25;5093840;28;20208;-53
2022/12/24 01:32:05;;;;;;;12.13;8.00;;;;;;;4.89;100.00;94343.94;5093810;28;20184;-53
2022/12/24 01:34:31;;;;;;;12.50;5.90;;;;;;;4.97;100.00;94356.00;5093790;28;20272;-57
2022/12/24 01:36:56;;;;;;;8.47;5.87;;;;;;;5.02;100.00;94366.59;5094034;28;20200;-55
2022/12/24 01:39:22;;;;;;;13.53;6.37;;;;;;;4.94;100.00;94356.25;5093637;28;20272;-55
2022/12/24 01:44:34;;;;;;;9.90;5.33;;;;;;;4.67;100.00;94328.69;5078438;28;20253;-53
2022/12/24 01:47:02;;;;;;;10.67;5.60;;;;;;;4.79;100.00;94348.00;5093890;28;20246;-55
2022/12/24 01:49:29;;;;;;;9.03;5.27;;;;;;;4.87;100.00;94362.56;5093845;28;20210;-55
2022/12/24 01:52:00;;;;;;;8.83;5.37;;;;;;;4.87;100.00;94370.13;5075753;28;20204;-53
2022/12/24 01:54:29;;;;;;;8.63;5.37;;;;;;;4.86;100.00;94376.91;5093667;28;20211;-58
2022/12/24 01:57:03;;;;;;;10.07;5.80;;;;;;;4.80;100.00;94389.91;5093972;28;20260;-54
2022/12/24 01:59:29;;;;;;;11.30;6.50;;;;;;;4.59;100.00;94358.59;5074792;28;20707;-53
2022/12/24 02:01:55;;;;;;;10.07;6.13;;;;;;;4.81;100.00;94399.06;5093690;28;20682;-52
2022/12/24 02:04:38;;;;;;;13.90;6.83;;;;;;;4.67;100.00;94379.03;5093558;28;20240;-55
2022/12/24 02:07:04;;;;;;;11.60;6.67;;;;;;;4.69;100.00;94362.09;5075328;28;20673;-53
2022/12/24 02:09:32;;;;;;;11.97;7.43;;;;;;;4.64;100.00;94364.13;5093111;28;20276;-54
2022/12/24 02:11:58;;;;;;;13.63;7.90;;;;;;;4.64;100.00;94359.09;5075169;28;20211;-53
2022/12/24 02:14:26;;;;;;;14.53;8.30;;;;;;;4.59;100.00;94361.09;5093052;28;20218;-56
2022/12/24 02:16:55;;;;;;;14.77;8.53;;;;;;;4.41;100.00;94319.53;5093160;28;20252;-53
2022/12/24 02:19:45;;;;;;;15.57;9.97;;;;;;;4.42;100.00;94323.69;5093153;28;20203;-55
2022/12/24 02:22:16;;;;;;;13.93;8.50;;;;;;;4.46;100.00;94326.78;5093594;28;20281;-55
2022/12/24 02:25:01;;;;;;;13.03;8.00;;;;;;;4.47;100.00;94336.75;5093089;28;20215;-53
2022/12/24 02:27:35;;;;;;;16.90;8.60;;;;;;;4.54;100.00;94348.03;5075358;28;20556;-54
2022/12/24 02:30:14;;;;;;;16.63;9.73;;;;;;;4.58;100.00;94379.66;5092891;28;20293;-57
2022/12/24 02:33:03;;;;;;;17.90;9.03;;;;;;;4.42;100.00;94356.41;5093296;28;20199;-57
2022/12/24 02:35:52;;;;;;;20.33;9.50;;;;;;;4.43;100.00;94334.53;5093223;28;20737;-56
2022/12/24 02:38:27;;;;;;;16.03;8.90;;;;;;;4.62;100.00;94371.00;5091951;28;20249;-53
2022/12/24 02:41:01;;;;;;;15.90;8.53;;;;;;;4.48;100.00;94353.47;5093142;28;20591;-53
2022/12/24 02:43:35;;;;;;;17.07;8.90;;;;;;;4.47;100.00;94314.09;5093017;28;20227;-53
2022/12/24 02:46:06;;;;;;;17.77;9.10;;;;;;;4.50;100.00;94338.28;5093140;28;20232;-53
2022/12/24 02:48:40;;;;;;;14.03;8.57;;;;;;;4.55;100.00;94326.16;5093163;28;20252;-53
2022/12/24 02:51:08;;;;;;;14.27;9.13;;;;;;;4.59;100.00;94310.78;5093080;28;20216;-54
2022/12/24 02:53:35;;;;;;;16.50;8.90;;;;;;;4.66;100.00;94342.19;5092498;28;20206;-53
2022/12/24 02:56:15;;;;;;;14.70;9.00;;;;;;;4.67;100.00;94353.84;5092724;28;20202;-56
2022/12/24 02:58:59;;;;;;;13.80;8.60;;;;;;;4.53;100.00;94301.13;5092717;28;20222;-53
2022/12/24 03:01:46;;;;;;;14.43;8.43;;;;;;;4.49;100.00;94314.81;5092534;28;20202;-53
2022/12/24 03:04:38;;;;;;;17.87;9.47;;;;;;;4.37;100.00;94274.56;5092562;28;20218;-55
2022/12/24 03:07:25;;;;;;;16.40;9.70;;;;;;;4.28;100.00;94268.44;5092748;28;20191;-54
2022/12/24 03:10:02;;;;;;;17.67;10.73;;;;;;;4.45;100.00;94269.81;5092481;28;20695;-53
2022/12/24 03:12:45;;;;;;;14.60;8.97;;;;;;;4.53;100.00;94328.78;5092706;28;20287;-54
2022/12/24 03:15:16;;;;;;;19.23;10.57;;;;;;;4.58;100.00;94300.81;5092166;28;20246;-55
2022/12/24 03:17:45;;;;;;;19.77;11.77;;;;;;;4.62;100.00;94282.91;5092424;28;20237;-56
2022/12/24 03:20:16;;;;;;;14.97;9.97;;;;;;;4.64;100.00;94316.31;5092169;28;20237;-56
2022/12/24 03:22:42;;;;;;;14.73;8.53;;;;;;;4.64;100.00;94338.16;5092267;28;20218;-56
2022/12/24 03:25:07;;;;;;;14.97;9.60;;;;;;;4.64;100.00;94370.88;5091914;28;20306;-56
2022/12/24 03:27:34;;;;;;;13.37;8.80;;;;;;;4.47;100.00;94340.97;5074115;28;20627;-55
2022/12/24 03:30:01;;;;;;;17.97;9.80;;;;;;;4.40;100.00;94354.88;5092149;28;20248;-55
2022/12/24 03:32:28;;;;;;;18.20;10.90;;;;;;;4.48;100.00;94361.03;5092434;28;20191;-56
2022/12/24 03:34:54;;;;;;;23.07;12.87;;;;;;;4.36;100.00;94350.97;5091982;28;20211;-55
2022/12/24 03:37:20;;;;;;;23.40;12.90;;;;;;;4.26;100.00;94344.00;5073992;28;20197;-53
2022/12/24 03:40:05;;;;;;;30.17;16.13;;;;;;;4.05;100.00;94310.19;5091971;28;20218;-53
2022/12/24 03:42:31;;;;;;;27.07;14.70;;;;;;;3.87;100.00;94276.19;5091797;28;20737;-54
2022/12/24 03:44:56;;;;;;;26.60;15.13;;;;;;;3.95;100.00;94290.78;5091881;28;20215;-56
2022/12/24 03:47:27;;;;;;;24.97;14.10;;;;;;;4.02;100.00;94297.03;5091889;28;20179;-53
2022/12/24 03:49:53;;;;;;;21.97;11.53;;;;;;;4.06;100.00;94294.19;5091433;28;20251;-53
2022/12/24 03:52:19;;;;;;;29.27;15.37;;;;;;;4.02;100.00;94307.88;5092115;28;20732;-56
2022/12/24 03:54:44;;;;;;;23.30;12.97;;;;;;;4.07;100.00;94303.34;5091913;28;20573;-56
2022/12/24 03:57:09;;;;;;;23.73;13.93;;;;;;;4.10;100.00;94295.59;5092252;28;20558;-52
2022/12/24 03:59:35;;;;;;;24.27;13.20;;;;;;;4.16;100.00;94329.63;5091752;28;20252;-54
2022/12/24 04:02:00;;;;;;;22.13;12.70;;;;;;;4.22;100.00;94319.16;5091761;28;20218;-56
2022/12/24 04:04:25;;;;;;;17.90;10.83;;;;;;;4.19;100.00;94321.88;5073582;28;20215;-53
2022/12/24 04:06:51;;;;;;;14.83;7.33;;;;;;;3.97;100.00;94296.50;5091745;28;20209;-55
2022/12/24 04:09:16;;;;;;;14.90;8.30;;;;;;;3.96;100.00;94290.66;5091622;28;20213;-54
2022/12/24 04:11:42;;;;;;;16.03;9.60;;;;;;;3.78;100.00;94284.31;5091731;28;20194;-56
2022/12/24 04:14:07;;;;;;;17.93;9.00;;;;;;;3.83;100.00;94294.88;5091511;28;20199;-54
2022/12/24 04:16:33;;;;;;;12.33;6.80;;;;;;;3.90;100.00;94287.75;5091732;28;20275;-56
2022/12/24 04:18:58;;;;;;;13.60;7.40;;;;;;;3.97;100.00;94304.03;5091309;28;20565;-53
2022/12/24 04:21:23;;;;;;;9.67;6.63;;;;;;;4.04;100.00;94315.34;5091341;28;20201;-53
2022/12/24 04:23:49;;;;;;;14.10;8.67;;;;;;;4.21;100.00;94338.47;5091449;28;20204;-54
2022/12/24 04:26:14;;;;;;;15.80;9.37;;;;;;;4.29;100.00;94358.09;5091509;28;20200;-55
2022/12/24 04:28:41;;;;;;;20.00;10.23;;;;;;;4.10;100.00;94338.34;5091439;28;20182;-52
2022/12/24 04:31:10;;;;;;;15.87;8.47;;;;;;;4.07;100.00;94326.00;5091256;28;20249;-53
2022/12/24 04:33:36;;;;;;;17.03;9.40;;;;;;;4.05;100.00;94342.06;5091266;28;20669;-54
2022/12/24 04:36:04;;;;;;;17.10;9.53;;;;;;;4.04;100.00;94345.50;5090944;28;20574;-53
2022/12/24 04:38:29;;;;;;;17.27;10.10;;;;;;;4.00;100.00;94342.38;5091331;28;20206;-56
2022/12/24 04:41:13;;;;;;;16.10;8.50;;;;;;;4.02;100.00;94332.22;5072857;28;20219;-56
2022/12/24 04:43:38;;;;;;;16.97;8.97;;;;;;;4.06;100.00;94361.31;5091030;28;20663;-54
2022/12/24 04:46:09;;;;;;;15.80;9.07;;;;;;;4.08;100.00;94347.69;5090877;28;20313;-53
2022/12/24 04:48:35;;;;;;;17.23;9.20;;;;;;;4.17;100.00;94384.84;5091074;28;20174;-53
2022/12/24 04:51:03;;;;;;;15.17;8.37;;;;;;;4.03;100.00;94376.56;5091007;28;20306;-55
2022/12/24 04:53:29;;;;;;;12.50;8.30;;;;;;;4.05;100.00;94359.69;5091122;28;20312;-53
2022/12/24 04:55:55;;;;;;;12.50;8.47;;;;;;;4.05;100.00;94349.63;5091129;28;20218;-52
2022/12/24 04:58:20;;;;;;;16.37;9.27;;;;;;;3.98;100.00;94316.50;5090756;28;20245;-56
2022/12/24 05:00:45;;;;;;;18.47;9.43;;;;;;;4.06;100.00;94326.88;5091711;28;20208;-53
2022/12/24 05:03:11;;;;;;;18.83;9.30;;;;;;;3.97;100.00;94309.06;5094683;28;20289;-54
2022/12/24 05:05:36;;;;;;;15.63;9.87;;;;;;;3.88;100.00;94307.16;5094583;28;20580;-55
2022/12/24 05:08:02;;;;;;;22.33;9.63;;;;;;;3.71;100.00;94307.44;5094450;28;20182;-55
2022/12/24 05:10:27;;;;;;;15.63;10.00;;;;;;;3.74;100.00;94315.56;5094309;28;20585;-55
2022/12/24 05:12:53;;;;;;;13.70;9.50;;;;;;;3.77;100.00;94307.84;5094435;28;20569;-54
2022/12/24 05:15:18;;;;;;;19.47;10.10;;;;;;;3.64;100.00;94311.22;5094101;28;20240;-54
2022/12/24 05:17:44;;;;;;;19.30;9.57;;;;;;;3.56;100.00;94306.69;5094094;28;20185;-53
2022/12/24 05:20:09;;;;;;;13.70;8.77;;;;;;;3.52;100.00;94301.94;5094016;28;20300;-55
2022/12/24 05:28:02;;;;;;;13.33;9.00;;;;;;;3.78;100.00;94311.16;5094146;28;20200;-55
2022/12/24 05:30:28;;;;;;;15.60;10.00;;;;;;;3.83;100.00;94322.53;5093919;28;20218;-53
2022/12/24 05:32:53;;;;;;;15.73;8.70;;;;;;;3.81;100.00;94308.44;5075992;28;20195;-54
2022/12/24 05:35:19;;;;;;;18.07;9.87;;;;;;;3.93;100.00;94311.00;5094068;28;20676;-56
2022/12/24 05:37:44;;;;;;;14.13;9.13;;;;;;;4.05;100.00;94329.50;5093913;28;20275;-53
2022/12/24 05:40:10;;;;;;;16.13;8.70;;;;;;;4.21;100.00;94340.19;5093558;28;20684;-53
2022/12/24 05:42:35;;;;;;;15.20;8.70;;;;;;;4.19;100.00;94330.22;5093699;28;20225;-57
2022/12/24 05:45:01;;;;;;;14.47;8.70;;;;;;;4.23;100.00;94335.84;5093639;28;20218;-56
2022/12/24 05:47:26;;;;;;;14.03;8.50;;;;;;;4.26;100.00;94333.16;5093991;28;20203;-55
2022/12/24 05:49:51;;;;;;;13.40;7.07;;;;;;;4.24;100.00;94327.41;5093696;28;20204;-55
2022/12/24 05:52:17;;;;;;;10.40;7.27;;;;;;;4.19;100.00;94320.16;5094064;28;20207;-56
2022/12/24 05:54:42;;;;;;;15.87;9.37;;;;;;;4.21;100.00;94320.06;5093598;28;20218;-56
2022/12/24 05:57:08;;;;;;;13.90;8.70;;;;;;;4.30;100.00;94329.53;5093618;28;20198;-56
2022/12/24 05:59:33;;;;;;;18.53;9.97;;;;;;;4.29;100.00;94337.97;5093408;28;20299;-56
2022/12/24 06:01:59;;;;;;;14.70;8.33;;;;;;;4.51;100.00;94347.41;5093189;28;20254;-53
2022/12/24 06:04:24;;;;;;;21.30;10.50;;;;;;;4.26;100.00;94325.59;5093382;28;20215;-56
2022/12/24 06:06:50;;;;;;;12.97;8.47;;;;;;;4.37;100.00;94353.38;5093653;28;20220;-59
2022/12/24 06:09:16;;;;;;;14.17;8.23;;;;;;;4.43;100.00;94378.13;5093292;28;20345;-57
2022/12/24 06:11:41;;;;;;;13.67;7.97;;;;;;;4.31;100.00;94363.81;5093954;28;20195;-54
2022/12/24 06:14:07;;;;;;;17.37;10.67;;;;;;;4.33;100.00;94399.75;5093340;28;20566;-54
2022/12/24 06:16:32;;;;;;;20.63;12.40;;;;;;;4.02;100.00;94367.44;5075002;28;20681;-55
2022/12/24 06:18:58;;;;;;;20.73;12.10;;;;;;;4.00;100.00;94364.22;5093578;28;20273;-53
2022/12/24 06:21:24;;;;;;;32.70;16.43;;;;;;;3.99;100.00;94355.84;5093519;28;20279;-53
2022/12/24 06:23:49;;;;;;;25.23;15.27;;;;;;;4.05;100.00;94360.50;5093147;28;20229;-55
2022/12/24 06:26:19;;;;;;;19.60;10.83;;;;;;;3.78;100.00;94332.06;5093518;28;20275;-54
2022/12/24 06:28:46;;;;;;;18.87;11.53;;;;;;;3.84;100.00;94336.72;5074844;28;20204;-54
2022/12/24 06:31:14;;;;;;;20.20;9.83;;;;;;;4.06;100.00;94368.84;5093244;28;20314;-53
2022/12/24 06:33:39;;;;;;;36.93;18.27;;;;;;;4.18;100.00;94395.72;5093018;28;20203;-53
2022/12/24 06:36:07;;;;;;;43.57;23.63;;;;;;;4.18;100.00;94408.31;5092803;28;20216;-53
2022/12/24 06:38:32;;;;;;;57.50;33.70;;;;;;;4.30;100.00;94459.53;5074600;28;20201;-56
2022/12/24 06:40:58;;;;;;;73.47;35.73;;;;;;;4.30;100.00;94479.66;5092923;28;20214;-52
2022/12/24 06:43:24;;;;;;;65.53;35.13;;;;;;;4.21;100.00;94463.44;5092900;28;20290;-54
2022/12/24 06:45:50;;;;;;;76.00;38.60;;;;;;;4.10;100.00;94443.19;5092772;28;20220;-56
2022/12/24 06:48:15;;;;;;;63.93;34.47;;;;;;;3.91;100.00;94447.75;5092679;28;20704;-55
2022/12/24 06:50:41;;;;;;;74.73;36.10;;;;;;;3.66;100.00;94399.88;5092653;28;20244;-53
2022/12/24 06:53:07;;;;;;;80.27;36.80;;;;;;;3.61;100.00;94406.91;5092698;28;20191;-53
2022/12/24 06:55:33;;;;;;;78.57;38.70;;;;;;;3.87;100.00;94452.16;5092676;28;20208;-54
2022/12/24 06:57:59;;;;;;;65.80;34.37;;;;;;;3.96;100.00;94469.19;5092580;28;20189;-53
2022/12/24 07:00:24;;;;;;;57.73;34.10;;;;;;;3.98;100.00;94467.38;5092640;28;20200;-52
2022/12/24 07:02:50;;;;;;;60.20;31.87;;;;;;;4.04;100.00;94459.44;5092270;28;20690;-54
2022/12/24 07:05:16;;;;;;;57.83;31.93;;;;;;;4.02;100.00;94426.06;5092238;28;20292;-55
2022/12/24 07:07:43;;;;;;;49.90;27.33;;;;;;;4.25;100.00;94467.38;5092235;28;20592;-56
2022/12/24 07:10:14;;;;;;;49.80;25.63;;;;;;;4.26;100.00;94426.22;5092063;28;20215;-53
2022/12/24 07:12:40;;;;;;;43.97;21.93;;;;;;;4.40;100.00;94421.09;5092446;28;20207;-54
2022/12/24 07:15:05;;;;;;;43.10;21.57;;;;;;;4.59;100.00;94426.53;5092186;28;20213;-55
2022/12/24 07:17:31;;;;;;;32.17;20.30;;;;;;;4.59;100.00;94433.28;5092236;28;20197;-55
2022/12/24 07:19:56;;;;;;;29.07;17.50;;;;;;;4.78;100.00;94444.59;5092103;28;20237;-56
2022/12/24 07:22:22;;;;;;;26.83;12.80;;;;;;;4.95;100.00;94466.94;5074016;28;20387;-56
2022/12/24 07:24:47;;;;;;;19.03;11.57;;;;;;;6.16;100.00;94377.06;5091523;28;20204;-56
2022/12/24 07:27:13;;;;;;;20.53;11.70;;;;;;;5.66;100.00;94448.66;5092200;28;20217;-56
2022/12/24 07:29:39;;;;;;;15.40;9.07;;;;;;;5.54;100.00;94507.50;5073770;28;20596;-56
2022/12/24 07:32:04;;;;;;;19.50;9.47;;;;;;;5.14;100.00;94489.19;5091846;28;20198;-54
2022/12/24 07:34:30;;;;;;;14.33;9.33;;;;;;;4.99;100.00;94465.81;5092032;28;20209;-54
2022/12/24 07:36:55;;;;;;;21.23;10.87;;;;;;;4.81;100.00;94415.88;5074017;28;20608;-53
2022/12/24 07:39:21;;;;;;;15.43;8.83;;;;;;;4.76;100.00;94425.44;5091906;28;20217;-54
2022/12/24 07:41:46;;;;;;;14.60;9.87;;;;;;;4.76;100.00;94391.03;5092045;28;20684;-55
2022/12/24 07:44:14;;;;;;;16.43;10.33;;;;;;;4.83;100.00;94412.34;5091928;28;20253;-56
2022/12/24 07:46:40;;;;;;;16.47;10.17;;;;;;;5.00;100.00;94423.81;5091962;28;20199;-54
2022/12/24 07:49:05;;;;;;;20.63;11.40;;;;;;;5.38;100.00;94474.16;5091828;28;20201;-55
2022/12/24 07:51:30;;;;;;;17.80;10.60;;;;;;;5.78;100.00;94503.31;5091833;28;20194;-53
2022/12/24 07:53:56;;;;;;;17.73;10.47;;;;;;;5.84;100.00;94496.16;5091505;28;20656;-56
2022/12/24 07:56:21;;;;;;;18.07;11.63;;;;;;;5.89;100.00;94490.81;5091770;28;20248;-53
2022/12/24 07:58:49;;;;;;;16.37;10.77;;;;;;;6.07;100.00;94514.75;5091580;28;20224;-54
2022/12/24 08:01:15;;;;;;;22.77;13.43;;;;;;;6.12;100.00;94487.47;5091968;28;20589;-55
2022/12/24 08:03:40;;;;;;;23.97;12.33;;;;;;;6.21;100.00;94469.19;5091782;28;20215;-55
2022/12/24 08:06:06;;;;;;;18.87;12.23;;;;;;;6.52;100.00;94508.19;5091749;28;20204;-53
2022/12/24 08:08:31;;;;;;;21.33;11.53;;;;;;;6.73;100.00;94516.75;5091574;28;20180;-54
2022/12/24 08:11:01;;;;;;;27.90;12.57;;;;;;;7.03;100.00;94536.47;5091547;28;20690;-55
2022/12/24 08:13:27;;;;;;;19.93;11.67;;;;;;;7.23;100.00;94531.56;5091205;28;20191;-55
2022/12/24 08:15:53;;;;;;;16.00;10.70;;;;;;;7.27;100.00;94522.03;5091328;28;20204;-55
2022/12/24 08:18:18;;;;;;;19.83;11.10;;;;;;;7.29;100.00;94528.56;5091081;28;20650;-56
2022/12/24 08:20:43;;;;;;;20.40;11.33;;;;;;;7.31;100.00;94500.69;5091420;28;20252;-55
2022/12/24 08:23:09;;;;;;;18.83;11.00;;;;;;;7.33;100.00;94527.44;5073112;28;20704;-56
2022/12/24 08:25:35;;;;;;;19.20;11.40;;;;;;;7.47;100.00;94541.59;5091124;28;20532;-53
2022/12/24 08:28:00;;;;;;;20.23;10.70;;;;;;;7.52;100.00;94549.63;5091136;28;20184;-54
2022/12/24 08:30:26;;;;;;;20.17;12.80;;;;;;;7.46;100.00;94533.19;5091222;28;20281;-54
2022/12/24 08:32:51;;;;;;;25.20;15.87;;;;;;;7.52;100.00;94569.88;5091224;28;20611;-57
2022/12/24 08:35:17;;;;;;;24.40;14.77;;;;;;;7.58;100.00;94598.06;5089956;28;20569;-56
2022/12/24 08:37:42;;;;;;;34.33;15.80;;;;;;;7.45;100.00;94569.50;5091192;28;20711;-56
2022/12/24 08:40:08;;;;;;;31.23;16.40;;;;;;;7.17;100.00;94548.91;5090981;28;20698;-54
2022/12/24 08:42:34;;;;;;;28.50;16.00;;;;;;;6.97;100.00;94514.97;5090896;28;20634;-56
2022/12/24 08:44:59;;;;;;;36.53;15.90;;;;;;;6.71;100.00;94473.13;5072785;28;20306;-55
2022/12/24 08:47:25;;;;;;;27.60;17.57;;;;;;;6.70;100.00;94459.72;5091314;28;20687;-54
2022/12/24 08:49:51;;;;;;;30.67;16.97;;;;;;;6.81;100.00;94460.66;5090781;28;20697;-54
2022/12/24 08:52:16;;;;;;;30.97;16.53;;;;;;;6.76;100.00;94448.34;5090977;28;20282;-54
2022/12/24 08:54:42;;;;;;;27.07;15.50;;;;;;;6.74;100.00;94456.03;5090966;28;20212;-57
2022/12/24 08:57:07;;;;;;;27.70;17.73;;;;;;;7.64;100.00;94389.34;5090991;28;20670;-56
2022/12/24 08:59:33;;;;;;;22.17;14.57;;;;;;;7.90;100.00;94370.41;5090594;28;20204;-55
2022/12/24 09:01:58;;;;;;;32.33;17.50;;;;;;;7.59;100.00;94558.38;5090805;28;20250;-55
2022/12/24 09:04:24;;;;;;;27.67;16.47;;;;;;;7.60;100.00;94548.16;5090699;28;20647;-55
2022/12/24 09:06:49;;;;;;;32.47;16.63;;;;;;;7.49;100.00;94558.25;5091201;28;20188;-57
2022/12/24 09:09:14;;;;;;;26.00;16.60;;;;;;;7.48;100.00;94540.66;5090626;28;20215;-56
2022/12/24 09:11:40;;;;;;;29.97;17.53;;;;;;;7.48;100.00;94533.09;5090921;28;20725;-57
2022/12/24 09:14:05;;;;;;;33.07;19.30;;;;;;;7.34;100.00;94529.06;5090800;28;20214;-57
2022/12/24 09:16:31;;;;;;;30.83;19.23;;;;;;;6.95;100.00;94478.13;5090955;28;20196;-55
2022/12/24 09:18:57;;;;;;;39.73;20.97;;;;;;;6.95;100.00;94458.69;5090730;28;20188;-55
2022/12/24 09:21:23;;;;;;;34.17;19.83;;;;;;;6.73;100.00;94454.41;5072366;28;20291;-54
2022/12/24 09:23:48;;;;;;;31.67;20.23;;;;;;;6.66;100.00;94465.09;5090737;28;20799;-55
2022/12/24 09:26:20;;;;;;;37.13;21.10;;;;;;;6.74;100.00;94452.69;5090368;28;20208;-58
2022/12/24 09:28:46;;;;;;;33.27;20.37;;;;;;;6.99;100.00;94459.28;5090724;28;20192;-55
2022/12/24 09:31:12;;;;;;;34.70;20.83;;;;;;;7.27;100.00;94474.00;5090675;28;20377;-55
2022/12/24 09:33:39;;;;;;;30.17;19.83;;;;;;;7.44;100.00;94492.06;5090503;28;20661;-56
2022/12/24 09:36:05;;;;;;;32.20;19.57;;;;;;;7.38;100.00;94505.16;5090609;28;20216;-57
2022/12/24 09:38:31;;;;;;;32.37;19.30;;;;;;;7.50;100.00;94508.47;5090465;28;20195;-57
2022/12/24 09:40:58;;;;;;;35.37;19.50;;;;;;;7.45;100.00;94496.19;5090370;28;20261;-57
2022/12/24 09:43:28;;;;;;;36.47;19.43;;;;;;;7.62;100.00;94510.09;5090072;28;20204;-57
2022/12/24 09:46:16;;;;;;;36.03;19.07;;;;;;;7.59;100.00;94528.81;5090094;28;20204;-56
2022/12/24 09:48:47;;;;;;;30.57;19.53;;;;;;;7.61;100.00;94511.03;5093595;28;20195;-57
2022/12/24 09:51:42;;;;;;;41.00;20.70;;;;;;;7.91;100.00;94536.53;5093839;28;20223;-57
2022/12/24 09:54:14;;;;;;;36.73;21.80;;;;;;;7.88;100.00;94524.09;5093717;28;20180;-56
2022/12/24 09:56:43;;;;;;;40.87;24.93;;;;;;;7.78;100.00;94518.13;5093381;28;20216;-56
2022/12/24 09:59:20;;;;;;;53.10;24.43;;;;;;;7.73;100.00;94505.03;5093632;28;20184;-55
2022/12/24 10:01:47;;;;;;;41.57;24.10;;;;;;;7.61;100.00;94516.88;5093945;28;20215;-54
2022/12/24 10:04:15;;;;;;;43.97;23.77;;;;;;;7.39;100.00;94453.66;5075733;28;20207;-56
2022/12/24 10:06:53;;;;;;;45.70;24.73;;;;;;;7.43;100.00;94456.78;5093402;28;20192;-56
2022/12/24 10:09:37;;;;;;;40.83;24.57;;;;;;;7.38;100.00;94436.88;5075188;28;20260;-56
2022/12/24 10:12:05;;;;;;;49.27;26.83;;;;;;;7.35;100.00;94475.03;5093182;28;20242;-57
2022/12/24 10:15:06;;;;;;;46.37;27.20;;;;;;;7.44;100.00;94473.53;5093067;28;20208;-55
2022/12/24 10:17:50;;;;;;;51.03;27.27;;;;;;;7.14;100.00;94443.78;5088785;28;20240;-56
2022/12/24 10:20:42;;;;;;;55.40;26.63;;;;;;;7.33;100.00;94417.94;5093103;28;20196;-55
2022/12/24 10:23:25;;;;;;;47.30;24.67;;;;;;;7.57;100.00;94486.88;5079926;28;20220;-56
2022/12/24 10:26:12;;;;;;;42.20;22.63;;;;;;;7.56;100.00;94482.72;5093151;28;20240;-56
2022/12/24 10:28:56;;;;;;;41.57;23.07;;;;;;;7.37;100.00;94469.88;5093205;28;20664;-57
2022/12/24 10:31:28;;;;;;;45.10;26.13;;;;;;;7.34;100.00;94462.50;5093390;28;20263;-56
2022/12/24 10:34:01;;;;;;;40.47;23.73;;;;;;;7.60;100.00;94466.41;5093091;28;20219;-56
2022/12/24 10:36:29;;;;;;;44.33;22.87;;;;;;;7.96;100.00;94346.38;5093084;28;20679;-55
2022/12/24 10:38:55;;;;;;;49.23;23.23;;;;;;;9.07;100.00;94359.16;5092901;28;20649;-55
2022/12/24 10:41:23;;;;;;;50.00;24.03;;;;;;;9.34;100.00;94427.84;5093342;28;20618;-55
2022/12/24 10:43:49;;;;;;;42.23;22.20;;;;;;;10.21;100.00;94416.97;5092807;28;20208;-54
2022/12/24 10:46:25;;;;;;;43.63;21.83;;;;;;;10.85;100.00;94336.59;5092861;28;20624;-54
2022/12/24 10:49:03;;;;;;;45.80;22.33;;;;;;;11.49;100.00;94465.59;5092747;28;20188;-56
2022/12/24 10:51:47;;;;;;;42.30;23.60;;;;;;;11.20;100.00;94684.50;5092963;28;20219;-55
2022/12/24 10:54:19;;;;;;;50.27;24.20;;;;;;;10.33;100.00;94509.09;5092366;28;20211;-54
2022/12/24 10:56:51;;;;;;;53.00;24.50;;;;;;;10.17;100.00;94488.47;5092657;28;20192;-55
2022/12/24 10:59:38;;;;;;;40.43;22.60;;;;;;;10.08;100.00;94517.97;5073657;28;20216;-53
2022/12/24 11:02:25;;;;;;;37.10;23.03;;;;;;;10.08;100.00;94549.25;5092940;28;20216;-54
2022/12/24 11:04:52;;;;;;;35.47;20.80;;;;;;;9.84;100.00;94533.53;5092441;28;20208;-56
2022/12/24 11:07:22;;;;;;;34.27;20.23;;;;;;;9.83;100.00;94572.56;5092782;28;20192;-57
2022/12/24 11:09:54;;;;;;;39.37;21.73;;;;;;;9.69;100.00;94473.13;5092436;28;20713;-54
2022/12/24 11:12:23;;;;;;;35.60;21.47;;;;;;;9.75;100.00;94529.25;5092453;28;20203;-55
2022/12/24 11:15:02;;;;;;;40.33;22.13;;;;;;;9.72;100.00;94483.81;5092400;28;20599;-56
2022/12/24 11:17:28;;;;;;;35.40;20.63;;;;;;;12.16;100.00;94531.53;5074162;28;20200;-58
2022/12/24 11:19:54;;;;;;;37.37;21.50;;;;;;;11.54;100.00;94685.72;5074008;28;20214;-52
2022/12/24 11:22:32;;;;;;;38.07;21.90;;;;;;;11.03;100.00;94676.72;5092681;28;20269;-53
2022/12/24 11:25:21;;;;;;;33.27;20.80;;;;;;;10.66;100.00;94603.59;5092050;28;20744;-55
2022/12/24 11:27:50;;;;;;;40.17;21.87;;;;;;;10.39;100.00;94560.19;5074097;28;20657;-53
2022/12/24 11:30:15;;;;;;;32.27;19.90;;;;;;;10.54;100.00;94614.00;5092131;28;20212;-53
2022/12/24 11:32:46;;;;;;;39.23;22.07;;;;;;;10.43;100.00;94592.03;5092223;28;20188;-56
2022/12/24 11:35:25;;;;;;;37.10;22.27;;;;;;;10.44;100.00;94539.47;5091976;28;20214;-57
2022/12/24 11:37:59;;;;;;;40.37;23.17;;;;;;;10.79;100.00;94601.59;5092170;28;20199;-57